sensor_id;sensor_type;location;lat;lon;timestamp;temperature;humidity
36710;DHT22;22694;51.040;3.684;2023-02-01T00:01:42;11.50;86.70
36710;DHT22;22694;51.040;3.684;2023-02-01T00:04:08;11.50;86.60
36710;DHT22;22694;51.040;3.684;2023-02-01T00:06:34;11.50;86.70
36710;DHT22;22694;51.040;3.684;2023-02-01T00:08:59;11.50;86.70
36710;DHT22;22694;51.040;3.684;2023-02-01T00:11:25;11.50;86.70
36710;DHT22;22694;51.040;3.684;2023-02-01T00:13:51;11.50;86.70
36710;DHT22;22694;51.040;3.684;2023-02-01T00:16:20;11.50;86.70
36710;DHT22;22694;51.040;3.684;2023-02-01T00:18:47;11.50;86.70
36710;DHT22;22694;51.040;3.684;2023-02-01T00:21:15;11.40;86.70
36710;DHT22;22694;51.040;3.684;2023-02-01T00:23:41;11.50;86.80
36710;DHT22;22694;51.040;3.684;2023-02-01T00:26:15;11.40;86.70
36710;DHT22;22694;51.040;3.684;2023-02-01T00:28:41;11.50;86.80
36710;DHT22;22694;51.040;3.684;2023-02-01T00:31:07;11.40;86.80
36710;DHT22;22694;51.040;3.684;2023-02-01T00:33:33;11.40;86.80
36710;DHT22;22694;51.040;3.684;2023-02-01T00:36:00;11.40;86.80
36710;DHT22;22694;51.040;3.684;2023-02-01T00:38:27;11.40;86.90
36710;DHT22;22694;51.040;3.684;2023-02-01T00:40:54;11.40;86.90
36710;DHT22;22694;51.040;3.684;2023-02-01T00:43:20;11.40;87.00
36710;DHT22;22694;51.040;3.684;2023-02-01T00:45:46;11.40;86.90
36710;DHT22;22694;51.040;3.684;2023-02-01T00:48:12;11.30;86.90
36710;DHT22;22694;51.040;3.684;2023-02-01T00:50:42;11.40;86.90
36710;DHT22;22694;51.040;3.684;2023-02-01T00:53:09;11.40;86.90
36710;DHT22;22694;51.040;3.684;2023-02-01T00:55:34;11.30;86.90
36710;DHT22;22694;51.040;3.684;2023-02-01T00:58:00;11.30;86.90
36710;DHT22;22694;51.040;3.684;2023-02-01T01:00:26;11.30;86.90
36710;DHT22;22694;51.040;3.684;2023-02-01T01:02:52;11.30;86.90
36710;DHT22;22694;51.040;3.684;2023-02-01T01:05:17;11.30;86.90
36710;DHT22;22694;51.040;3.684;2023-02-01T01:07:43;11.30;86.90
36710;DHT22;22694;51.040;3.684;2023-02-01T01:10:09;11.30;86.90
36710;DHT22;22694;51.040;3.684;2023-02-01T01:12:35;11.30;86.90
36710;DHT22;22694;51.040;3.684;2023-02-01T01:15:00;11.30;87.00
36710;DHT22;22694;51.040;3.684;2023-02-01T01:17:26;11.30;87.20
36710;DHT22;22694;51.040;3.684;2023-02-01T01:19:52;11.30;87.20
36710;DHT22;22694;51.040;3.684;2023-02-01T01:22:17;11.30;87.20
36710;DHT22;22694;51.040;3.684;2023-02-01T01:24:43;11.30;87.20
36710;DHT22;22694;51.040;3.684;2023-02-01T01:27:09;11.30;87.20
36710;DHT22;22694;51.040;3.684;2023-02-01T01:29:34;11.20;87.00
36710;DHT22;22694;51.040;3.684;2023-02-01T01:32:00;11.30;87.00
36710;DHT22;22694;51.040;3.684;2023-02-01T01:34:26;11.20;86.90
36710;DHT22;22694;51.040;3.684;2023-02-01T01:36:51;11.20;86.90
36710;DHT22;22694;51.040;3.684;2023-02-01T01:39:17;11.20;86.90
36710;DHT22;22694;51.040;3.684;2023-02-01T01:41:43;11.20;86.90
36710;DHT22;22694;51.040;3.684;2023-02-01T01:47:12;11.20;86.90
36710;DHT22;22694;51.040;3.684;2023-02-01T01:49:39;11.20;87.00
36710;DHT22;22694;51.040;3.684;2023-02-01T01:52:05;11.10;87.00
36710;DHT22;22694;51.040;3.684;2023-02-01T01:54:38;11.20;87.10
36710;DHT22;22694;51.040;3.684;2023-02-01T01:57:20;11.10;87.00
36710;DHT22;22694;51.040;3.684;2023-02-01T01:59:53;11.10;87.10
36710;DHT22;22694;51.040;3.684;2023-02-01T02:02:21;11.10;87.10
36710;DHT22;22694;51.040;3.684;2023-02-01T02:04:47;11.10;87.00
36710;DHT22;22694;51.040;3.684;2023-02-01T02:07:17;11.10;87.00
36710;DHT22;22694;51.040;3.684;2023-02-01T02:09:45;11.10;87.10
36710;DHT22;22694;51.040;3.684;2023-02-01T02:12:11;11.10;87.20
36710;DHT22;22694;51.040;3.684;2023-02-01T02:14:37;11.10;87.20
36710;DHT22;22694;51.040;3.684;2023-02-01T02:22:25;11.10;87.20
36710;DHT22;22694;51.040;3.684;2023-02-01T02:36:22;11.00;87.10
36710;DHT22;22694;51.040;3.684;2023-02-01T02:39:03;11.00;87.20
36710;DHT22;22694;51.040;3.684;2023-02-01T02:44:47;11.00;87.30
36710;DHT22;22694;51.040;3.684;2023-02-01T02:47:39;10.90;87.30
36710;DHT22;22694;51.040;3.684;2023-02-01T02:53:14;10.90;87.40
36710;DHT22;22694;51.040;3.684;2023-02-01T02:55:59;10.90;87.40
36710;DHT22;22694;51.040;3.684;2023-02-01T02:58:45;10.90;87.50
36710;DHT22;22694;51.040;3.684;2023-02-01T03:01:30;10.90;87.50
36710;DHT22;22694;51.040;3.684;2023-02-01T03:04:15;10.90;87.50
36710;DHT22;22694;51.040;3.684;2023-02-01T03:06:43;10.90;87.50
36710;DHT22;22694;51.040;3.684;2023-02-01T03:09:31;10.90;87.50
36710;DHT22;22694;51.040;3.684;2023-02-01T03:12:01;10.90;87.50
36710;DHT22;22694;51.040;3.684;2023-02-01T03:14:49;10.80;87.40
36710;DHT22;22694;51.040;3.684;2023-02-01T03:17:21;10.80;87.50
36710;DHT22;22694;51.040;3.684;2023-02-01T03:19:51;10.80;87.50
36710;DHT22;22694;51.040;3.684;2023-02-01T03:22:21;10.80;87.50
36710;DHT22;22694;51.040;3.684;2023-02-01T03:24:51;10.80;87.50
36710;DHT22;22694;51.040;3.684;2023-02-01T03:27:27;10.80;87.60
36710;DHT22;22694;51.040;3.684;2023-02-01T03:29:59;10.80;87.60
36710;DHT22;22694;51.040;3.684;2023-02-01T03:32:27;10.80;87.50
36710;DHT22;22694;51.040;3.684;2023-02-01T03:34:53;10.80;87.40
36710;DHT22;22694;51.040;3.684;2023-02-01T03:37:27;10.80;87.50
36710;DHT22;22694;51.040;3.684;2023-02-01T03:40:05;10.80;87.40
36710;DHT22;22694;51.040;3.684;2023-02-01T03:42:40;10.80;87.50
36710;DHT22;22694;51.040;3.684;2023-02-01T03:45:54;10.80;87.50
36710;DHT22;22694;51.040;3.684;2023-02-01T03:48:00;10.80;87.50
36710;DHT22;22694;51.040;3.684;2023-02-01T03:50:29;10.80;87.40
36710;DHT22;22694;51.040;3.684;2023-02-01T03:53:01;10.80;87.50
36710;DHT22;22694;51.040;3.684;2023-02-01T03:55:30;10.80;87.50
36710;DHT22;22694;51.040;3.684;2023-02-01T04:00:56;10.80;87.50
36710;DHT22;22694;51.040;3.684;2023-02-01T04:03:23;10.80;87.50
36710;DHT22;22694;51.040;3.684;2023-02-01T04:05:51;10.70;87.40
36710;DHT22;22694;51.040;3.684;2023-02-01T04:08:18;10.70;87.40
36710;DHT22;22694;51.040;3.684;2023-02-01T04:10:44;10.70;87.40
36710;DHT22;22694;51.040;3.684;2023-02-01T04:13:10;10.70;87.40
36710;DHT22;22694;51.040;3.684;2023-02-01T04:15:36;10.70;87.40
36710;DHT22;22694;51.040;3.684;2023-02-01T04:18:01;10.70;87.40
36710;DHT22;22694;51.040;3.684;2023-02-01T04:20:27;10.70;87.40
36710;DHT22;22694;51.040;3.684;2023-02-01T04:22:53;10.70;87.40
36710;DHT22;22694;51.040;3.684;2023-02-01T04:25:19;10.70;87.50
36710;DHT22;22694;51.040;3.684;2023-02-01T04:27:44;10.70;87.80
36710;DHT22;22694;51.040;3.684;2023-02-01T04:30:11;10.70;88.10
36710;DHT22;22694;51.040;3.684;2023-02-01T04:32:38;10.70;87.70
36710;DHT22;22694;51.040;3.684;2023-02-01T04:35:04;10.70;87.60
36710;DHT22;22694;51.040;3.684;2023-02-01T04:37:30;10.70;87.60
36710;DHT22;22694;51.040;3.684;2023-02-01T04:39:56;10.70;87.60
36710;DHT22;22694;51.040;3.684;2023-02-01T04:42:21;10.70;87.60
36710;DHT22;22694;51.040;3.684;2023-02-01T04:44:47;10.70;87.70
36710;DHT22;22694;51.040;3.684;2023-02-01T04:47:13;10.70;87.70
36710;DHT22;22694;51.040;3.684;2023-02-01T04:49:39;10.70;87.70
36710;DHT22;22694;51.040;3.684;2023-02-01T04:52:05;10.70;87.70
36710;DHT22;22694;51.040;3.684;2023-02-01T04:54:31;10.60;87.60
36710;DHT22;22694;51.040;3.684;2023-02-01T04:56:56;10.70;87.60
36710;DHT22;22694;51.040;3.684;2023-02-01T04:59:22;10.60;87.60
36710;DHT22;22694;51.040;3.684;2023-02-01T05:01:48;10.60;87.60
36710;DHT22;22694;51.040;3.684;2023-02-01T05:04:13;10.60;87.60
36710;DHT22;22694;51.040;3.684;2023-02-01T05:06:39;10.60;87.60
36710;DHT22;22694;51.040;3.684;2023-02-01T05:09:06;10.60;87.70
36710;DHT22;22694;51.040;3.684;2023-02-01T05:11:32;10.60;87.70
36710;DHT22;22694;51.040;3.684;2023-02-01T05:14:16;10.60;87.70
36710;DHT22;22694;51.040;3.684;2023-02-01T05:16:42;10.60;87.70
36710;DHT22;22694;51.040;3.684;2023-02-01T05:19:07;10.80;93.00
36710;DHT22;22694;51.040;3.684;2023-02-01T05:21:33;11.20;93.50
36710;DHT22;22694;51.040;3.684;2023-02-01T05:23:59;11.40;92.60
36710;DHT22;22694;51.040;3.684;2023-02-01T05:26:42;11.50;92.00
36710;DHT22;22694;51.040;3.684;2023-02-01T05:29:11;11.60;91.50
36710;DHT22;22694;51.040;3.684;2023-02-01T05:31:37;11.60;91.10
36710;DHT22;22694;51.040;3.684;2023-02-01T05:34:03;11.70;90.70
36710;DHT22;22694;51.040;3.684;2023-02-01T05:36:29;11.60;90.50
36710;DHT22;22694;51.040;3.684;2023-02-01T05:38:54;11.70;90.40
36710;DHT22;22694;51.040;3.684;2023-02-01T05:41:20;11.70;90.20
36710;DHT22;22694;51.040;3.684;2023-02-01T05:43:45;11.70;90.10
36710;DHT22;22694;51.040;3.684;2023-02-01T05:46:11;11.80;90.10
36710;DHT22;22694;51.040;3.684;2023-02-01T05:48:39;11.80;90.30
36710;DHT22;22694;51.040;3.684;2023-02-01T05:51:05;11.80;88.20
36710;DHT22;22694;51.040;3.684;2023-02-01T05:53:30;11.70;85.10
36710;DHT22;22694;51.040;3.684;2023-02-01T05:55:56;11.50;84.70
36710;DHT22;22694;51.040;3.684;2023-02-01T05:58:22;11.40;84.90
36710;DHT22;22694;51.040;3.684;2023-02-01T06:00:47;11.30;85.10
36710;DHT22;22694;51.040;3.684;2023-02-01T06:03:13;11.30;85.40
36710;DHT22;22694;51.040;3.684;2023-02-01T06:05:38;11.20;85.50
36710;DHT22;22694;51.040;3.684;2023-02-01T06:08:04;11.20;85.50
36710;DHT22;22694;51.040;3.684;2023-02-01T06:10:30;11.10;85.50
36710;DHT22;22694;51.040;3.684;2023-02-01T06:12:55;11.10;85.80
36710;DHT22;22694;51.040;3.684;2023-02-01T06:15:21;11.00;85.80
36710;DHT22;22694;51.040;3.684;2023-02-01T06:17:47;11.00;85.90
36710;DHT22;22694;51.040;3.684;2023-02-01T06:20:14;11.00;85.90
36710;DHT22;22694;51.040;3.684;2023-02-01T06:22:40;11.00;86.00
36710;DHT22;22694;51.040;3.684;2023-02-01T06:25:08;10.90;86.00
36710;DHT22;22694;51.040;3.684;2023-02-01T06:27:34;10.90;86.00
36710;DHT22;22694;51.040;3.684;2023-02-01T06:30:00;10.90;86.10
36710;DHT22;22694;51.040;3.684;2023-02-01T06:32:25;10.90;86.10
36710;DHT22;22694;51.040;3.684;2023-02-01T06:34:51;10.80;86.10
36710;DHT22;22694;51.040;3.684;2023-02-01T06:37:22;10.80;86.10
36710;DHT22;22694;51.040;3.684;2023-02-01T06:39:48;10.80;86.10
36710;DHT22;22694;51.040;3.684;2023-02-01T06:42:14;10.80;86.10
36710;DHT22;22694;51.040;3.684;2023-02-01T06:44:40;10.80;86.20
36710;DHT22;22694;51.040;3.684;2023-02-01T06:47:06;10.80;86.20
36710;DHT22;22694;51.040;3.684;2023-02-01T06:49:32;10.80;86.20
36710;DHT22;22694;51.040;3.684;2023-02-01T06:51:57;10.80;86.20
36710;DHT22;22694;51.040;3.684;2023-02-01T06:54:28;10.80;86.20
36710;DHT22;22694;51.040;3.684;2023-02-01T06:56:54;10.80;86.20
36710;DHT22;22694;51.040;3.684;2023-02-01T06:59:20;10.70;86.10
36710;DHT22;22694;51.040;3.684;2023-02-01T07:01:46;10.80;86.10
36710;DHT22;22694;51.040;3.684;2023-02-01T07:04:11;10.70;86.10
36710;DHT22;22694;51.040;3.684;2023-02-01T07:06:38;10.70;86.80
36710;DHT22;22694;51.040;3.684;2023-02-01T07:09:05;10.70;86.20
36710;DHT22;22694;51.040;3.684;2023-02-01T07:11:30;10.70;86.20
36710;DHT22;22694;51.040;3.684;2023-02-01T07:13:57;10.70;86.20
36710;DHT22;22694;51.040;3.684;2023-02-01T07:16:23;10.70;86.30
36710;DHT22;22694;51.040;3.684;2023-02-01T07:18:50;10.70;86.40
36710;DHT22;22694;51.040;3.684;2023-02-01T07:21:16;10.70;86.40
36710;DHT22;22694;51.040;3.684;2023-02-01T07:23:42;10.70;86.40
36710;DHT22;22694;51.040;3.684;2023-02-01T07:26:10;10.70;86.40
36710;DHT22;22694;51.040;3.684;2023-02-01T07:28:38;10.70;86.40
36710;DHT22;22694;51.040;3.684;2023-02-01T07:31:05;10.60;86.40
36710;DHT22;22694;51.040;3.684;2023-02-01T07:33:32;10.60;86.40
36710;DHT22;22694;51.040;3.684;2023-02-01T07:36:00;10.60;86.30
36710;DHT22;22694;51.040;3.684;2023-02-01T07:38:27;10.60;86.40
36710;DHT22;22694;51.040;3.684;2023-02-01T07:40:57;10.60;86.40
36710;DHT22;22694;51.040;3.684;2023-02-01T07:43:24;10.60;86.40
36710;DHT22;22694;51.040;3.684;2023-02-01T07:45:53;10.60;86.40
36710;DHT22;22694;51.040;3.684;2023-02-01T07:48:21;10.60;86.30
36710;DHT22;22694;51.040;3.684;2023-02-01T07:50:47;10.60;86.40
36710;DHT22;22694;51.040;3.684;2023-02-01T07:53:13;10.60;86.30
36710;DHT22;22694;51.040;3.684;2023-02-01T07:55:39;10.60;86.30
36710;DHT22;22694;51.040;3.684;2023-02-01T07:58:05;10.60;86.30
36710;DHT22;22694;51.040;3.684;2023-02-01T08:00:30;10.60;86.30
36710;DHT22;22694;51.040;3.684;2023-02-01T08:03:14;10.60;86.30
36710;DHT22;22694;51.040;3.684;2023-02-01T08:05:40;10.60;86.30
36710;DHT22;22694;51.040;3.684;2023-02-01T08:08:06;10.60;86.30
36710;DHT22;22694;51.040;3.684;2023-02-01T08:10:32;10.60;86.30
36710;DHT22;22694;51.040;3.684;2023-02-01T08:13:00;10.80;86.50
36710;DHT22;22694;51.040;3.684;2023-02-01T08:15:27;10.60;86.40
36710;DHT22;22694;51.040;3.684;2023-02-01T08:17:53;10.60;86.40
36710;DHT22;22694;51.040;3.684;2023-02-01T08:20:20;10.60;86.50
36710;DHT22;22694;51.040;3.684;2023-02-01T08:22:50;10.60;86.40
36710;DHT22;22694;51.040;3.684;2023-02-01T08:25:16;10.60;86.40
36710;DHT22;22694;51.040;3.684;2023-02-01T08:27:41;10.60;86.40
36710;DHT22;22694;51.040;3.684;2023-02-01T08:30:08;10.60;86.50
36710;DHT22;22694;51.040;3.684;2023-02-01T08:32:34;10.60;86.40
36710;DHT22;22694;51.040;3.684;2023-02-01T08:35:00;10.60;86.40
36710;DHT22;22694;51.040;3.684;2023-02-01T08:37:26;10.60;86.50
36710;DHT22;22694;51.040;3.684;2023-02-01T08:39:52;10.60;86.40
36710;DHT22;22694;51.040;3.684;2023-02-01T08:42:18;10.90;93.40
36710;DHT22;22694;51.040;3.684;2023-02-01T08:45:03;11.40;93.90
36710;DHT22;22694;51.040;3.684;2023-02-01T08:47:30;11.80;92.50
36710;DHT22;22694;51.040;3.684;2023-02-01T08:49:56;11.90;91.00
36710;DHT22;22694;51.040;3.684;2023-02-01T08:52:21;11.80;87.30
36710;DHT22;22694;51.040;3.684;2023-02-01T08:54:47;11.60;86.60
36710;DHT22;22694;51.040;3.684;2023-02-01T08:57:13;11.50;86.50
36710;DHT22;22694;51.040;3.684;2023-02-01T08:59:38;11.30;85.60
36710;DHT22;22694;51.040;3.684;2023-02-01T09:02:04;11.20;85.40
36710;DHT22;22694;51.040;3.684;2023-02-01T09:04:30;11.10;85.60
36710;DHT22;22694;51.040;3.684;2023-02-01T09:06:55;11.10;85.80
36710;DHT22;22694;51.040;3.684;2023-02-01T09:09:22;11.00;86.00
36710;DHT22;22694;51.040;3.684;2023-02-01T09:11:48;11.00;86.20
36710;DHT22;22694;51.040;3.684;2023-02-01T09:14:16;10.90;86.20
36710;DHT22;22694;51.040;3.684;2023-02-01T09:16:41;10.90;86.40
36710;DHT22;22694;51.040;3.684;2023-02-01T09:19:07;10.90;86.60
36710;DHT22;22694;51.040;3.684;2023-02-01T09:21:32;10.90;86.60
36710;DHT22;22694;51.040;3.684;2023-02-01T09:23:58;10.90;86.60
36710;DHT22;22694;51.040;3.684;2023-02-01T09:26:24;10.90;86.60
36710;DHT22;22694;51.040;3.684;2023-02-01T09:28:51;10.90;86.80
36710;DHT22;22694;51.040;3.684;2023-02-01T09:31:16;10.90;86.90
36710;DHT22;22694;51.040;3.684;2023-02-01T09:33:42;10.90;87.00
36710;DHT22;22694;51.040;3.684;2023-02-01T09:36:08;10.90;86.90
36710;DHT22;22694;51.040;3.684;2023-02-01T09:38:33;11.20;95.30
36710;DHT22;22694;51.040;3.684;2023-02-01T09:41:00;11.70;94.10
36710;DHT22;22694;51.040;3.684;2023-02-01T09:43:50;12.20;93.50
36710;DHT22;22694;51.040;3.684;2023-02-01T09:46:26;12.80;93.20
36710;DHT22;22694;51.040;3.684;2023-02-01T09:48:57;13.10;91.60
36710;DHT22;22694;51.040;3.684;2023-02-01T09:51:34;13.00;90.10
36710;DHT22;22694;51.040;3.684;2023-02-01T09:54:15;12.80;88.30
36710;DHT22;22694;51.040;3.684;2023-02-01T09:56:44;12.60;88.10
36710;DHT22;22694;51.040;3.684;2023-02-01T10:01:56;12.30;87.80
36710;DHT22;22694;51.040;3.684;2023-02-01T10:04:22;12.10;87.60
36710;DHT22;22694;51.040;3.684;2023-02-01T10:07:09;12.00;87.40
36710;DHT22;22694;51.040;3.684;2023-02-01T10:09:52;12.00;87.20
36710;DHT22;22694;51.040;3.684;2023-02-01T10:14:59;11.90;87.00
36710;DHT22;22694;51.040;3.684;2023-02-01T10:25:58;11.80;87.20
36710;DHT22;22694;51.040;3.684;2023-02-01T10:28:26;11.80;87.40
36710;DHT22;22694;51.040;3.684;2023-02-01T10:30:56;11.90;87.30
36710;DHT22;22694;51.040;3.684;2023-02-01T10:33:25;11.90;87.30
36710;DHT22;22694;51.040;3.684;2023-02-01T10:35:58;11.90;87.10
36710;DHT22;22694;51.040;3.684;2023-02-01T10:38:28;11.90;87.10
36710;DHT22;22694;51.040;3.684;2023-02-01T10:41:18;11.90;87.00
36710;DHT22;22694;51.040;3.684;2023-02-01T10:43:43;12.20;92.90
36710;DHT22;22694;51.040;3.684;2023-02-01T10:46:10;12.50;91.80
36710;DHT22;22694;51.040;3.684;2023-02-01T10:48:37;12.50;90.40
36710;DHT22;22694;51.040;3.684;2023-02-01T10:51:12;12.40;88.30
36710;DHT22;22694;51.040;3.684;2023-02-01T10:53:56;12.30;87.30
36710;DHT22;22694;51.040;3.684;2023-02-01T10:56:27;12.20;87.10
36710;DHT22;22694;51.040;3.684;2023-02-01T10:59:01;12.20;87.00
36710;DHT22;22694;51.040;3.684;2023-02-01T11:01:34;12.20;87.00
36710;DHT22;22694;51.040;3.684;2023-02-01T11:04:17;12.20;87.00
36710;DHT22;22694;51.040;3.684;2023-02-01T11:06:47;12.10;87.00
36710;DHT22;22694;51.040;3.684;2023-02-01T11:09:22;12.40;92.40
36710;DHT22;22694;51.040;3.684;2023-02-01T11:14:27;13.00;94.40
36710;DHT22;22694;51.040;3.684;2023-02-01T11:16:59;13.40;93.30
36710;DHT22;22694;51.040;3.684;2023-02-01T11:19:25;13.60;93.10
36710;DHT22;22694;51.040;3.684;2023-02-01T11:21:57;13.80;92.40
36710;DHT22;22694;51.040;3.684;2023-02-01T11:24:25;13.90;92.50
36710;DHT22;22694;51.040;3.684;2023-02-01T11:26:57;14.00;92.40
36710;DHT22;22694;51.040;3.684;2023-02-01T11:29:24;14.20;92.60
36710;DHT22;22694;51.040;3.684;2023-02-01T11:31:57;14.20;92.50
36710;DHT22;22694;51.040;3.684;2023-02-01T11:34:27;14.30;92.80
36710;DHT22;22694;51.040;3.684;2023-02-01T11:36:58;14.40;93.10
36710;DHT22;22694;51.040;3.684;2023-02-01T11:39:30;14.50;93.50
36710;DHT22;22694;51.040;3.684;2023-02-01T11:42:13;14.50;93.50
36710;DHT22;22694;51.040;3.684;2023-02-01T11:44:41;14.60;93.40
36710;DHT22;22694;51.040;3.684;2023-02-01T11:47:30;14.70;93.40
36710;DHT22;22694;51.040;3.684;2023-02-01T11:50:03;14.80;93.40
36710;DHT22;22694;51.040;3.684;2023-02-01T11:55:52;14.90;92.80
36710;DHT22;22694;51.040;3.684;2023-02-01T11:58:58;14.90;92.50
36710;DHT22;22694;51.040;3.684;2023-02-01T12:06:54;15.10;91.70
36710;DHT22;22694;51.040;3.684;2023-02-01T12:19:56;15.30;90.80
36710;DHT22;22694;51.040;3.684;2023-02-01T12:33:30;15.30;89.90
36710;DHT22;22694;51.040;3.684;2023-02-01T12:39:23;15.30;89.30
36710;DHT22;22694;51.040;3.684;2023-02-01T12:42:15;15.40;89.70
36710;DHT22;22694;51.040;3.684;2023-02-01T12:44:50;15.30;87.90
36710;DHT22;22694;51.040;3.684;2023-02-01T12:57:46;14.60;87.10
36710;DHT22;22694;51.040;3.684;2023-02-01T13:05:58;14.50;87.20
36710;DHT22;22694;51.040;3.684;2023-02-01T13:16:41;14.40;87.30
36710;DHT22;22694;51.040;3.684;2023-02-01T13:19:44;14.40;87.40
36710;DHT22;22694;51.040;3.684;2023-02-01T13:22:17;14.30;87.20
36710;DHT22;22694;51.040;3.684;2023-02-01T13:24:58;14.30;87.20
36710;DHT22;22694;51.040;3.684;2023-02-01T13:27:27;14.30;87.20
36710;DHT22;22694;51.040;3.684;2023-02-01T13:29:57;14.30;87.30
36710;DHT22;22694;51.040;3.684;2023-02-01T13:32:46;14.30;87.20
36710;DHT22;22694;51.040;3.684;2023-02-01T13:45:42;14.30;87.20
36710;DHT22;22694;51.040;3.684;2023-02-01T13:48:22;14.30;87.80
36710;DHT22;22694;51.040;3.684;2023-02-01T13:50:58;14.30;87.20
36710;DHT22;22694;51.040;3.684;2023-02-01T13:53:36;14.30;87.20
36710;DHT22;22694;51.040;3.684;2023-02-01T13:58:39;14.30;86.90
36710;DHT22;22694;51.040;3.684;2023-02-01T14:03:48;14.30;86.80
36710;DHT22;22694;51.040;3.684;2023-02-01T14:16:43;14.30;86.90
36710;DHT22;22694;51.040;3.684;2023-02-01T14:21:52;14.30;86.80
36710;DHT22;22694;51.040;3.684;2023-02-01T14:24:32;14.30;86.90
36710;DHT22;22694;51.040;3.684;2023-02-01T14:27:07;14.40;87.20
36710;DHT22;22694;51.040;3.684;2023-02-01T14:29:43;14.60;88.10
36710;DHT22;22694;51.040;3.684;2023-02-01T14:32:24;14.70;88.60
36710;DHT22;22694;51.040;3.684;2023-02-01T14:34:56;14.90;88.70
36710;DHT22;22694;51.040;3.684;2023-02-01T14:37:35;15.00;88.60
36710;DHT22;22694;51.040;3.684;2023-02-01T14:47:49;15.20;88.10
36710;DHT22;22694;51.040;3.684;2023-02-01T15:06:30;15.40;87.10
36710;DHT22;22694;51.040;3.684;2023-02-01T15:09:18;15.50;87.10
36710;DHT22;22694;51.040;3.684;2023-02-01T15:12:04;15.40;86.90
36710;DHT22;22694;51.040;3.684;2023-02-01T15:14:41;15.50;86.90
36710;DHT22;22694;51.040;3.684;2023-02-01T15:17:25;15.50;86.80
36710;DHT22;22694;51.040;3.684;2023-02-01T15:19:55;15.50;86.70
36710;DHT22;22694;51.040;3.684;2023-02-01T15:22:21;15.50;86.80
36710;DHT22;22694;51.040;3.684;2023-02-01T15:24:58;15.50;87.00
36710;DHT22;22694;51.040;3.684;2023-02-01T15:27:25;15.60;87.20
36710;DHT22;22694;51.040;3.684;2023-02-01T15:29:51;15.60;87.50
36710;DHT22;22694;51.040;3.684;2023-02-01T15:32:46;15.60;88.10
36710;DHT22;22694;51.040;3.684;2023-02-01T15:35:35;15.60;88.50
36710;DHT22;22694;51.040;3.684;2023-02-01T15:43:30;15.90;91.30
36710;DHT22;22694;51.040;3.684;2023-02-01T15:46:03;15.90;90.50
36710;DHT22;22694;51.040;3.684;2023-02-01T15:48:53;15.90;89.80
36710;DHT22;22694;51.040;3.684;2023-02-01T15:51:22;15.90;89.00
36710;DHT22;22694;51.040;3.684;2023-02-01T15:53:51;15.80;88.50
36710;DHT22;22694;51.040;3.684;2023-02-01T15:56:23;15.80;88.20
36710;DHT22;22694;51.040;3.684;2023-02-01T15:58:55;15.80;87.90
36710;DHT22;22694;51.040;3.684;2023-02-01T16:01:21;15.80;87.80
36710;DHT22;22694;51.040;3.684;2023-02-01T16:03:47;15.80;87.70
36710;DHT22;22694;51.040;3.684;2023-02-01T16:11:27;15.80;87.40
36710;DHT22;22694;51.040;3.684;2023-02-01T16:13:56;15.80;87.20
36710;DHT22;22694;51.040;3.684;2023-02-01T16:16:22;15.80;87.00
36710;DHT22;22694;51.040;3.684;2023-02-01T16:18:48;15.80;86.80
36710;DHT22;22694;51.040;3.684;2023-02-01T16:21:14;15.80;86.60
36710;DHT22;22694;51.040;3.684;2023-02-01T16:23:39;15.80;86.50
36710;DHT22;22694;51.040;3.684;2023-02-01T16:26:05;15.80;86.40
36710;DHT22;22694;51.040;3.684;2023-02-01T16:28:31;15.80;86.50
36710;DHT22;22694;51.040;3.684;2023-02-01T16:30:58;15.80;86.50
36710;DHT22;22694;51.040;3.684;2023-02-01T16:33:24;15.80;86.40
36710;DHT22;22694;51.040;3.684;2023-02-01T16:35:50;15.80;86.40
36710;DHT22;22694;51.040;3.684;2023-02-01T16:38:18;15.80;86.40
36710;DHT22;22694;51.040;3.684;2023-02-01T16:40:47;15.80;86.40
36710;DHT22;22694;51.040;3.684;2023-02-01T16:43:18;15.80;86.30
36710;DHT22;22694;51.040;3.684;2023-02-01T16:45:45;15.80;86.40
36710;DHT22;22694;51.040;3.684;2023-02-01T16:48:28;15.70;86.40
36710;DHT22;22694;51.040;3.684;2023-02-01T16:50:56;15.80;86.50
36710;DHT22;22694;51.040;3.684;2023-02-01T16:53:24;15.80;86.40
36710;DHT22;22694;51.040;3.684;2023-02-01T16:55:50;15.80;86.30
36710;DHT22;22694;51.040;3.684;2023-02-01T16:58:18;15.70;86.20
36710;DHT22;22694;51.040;3.684;2023-02-01T17:00:44;15.70;86.20
36710;DHT22;22694;51.040;3.684;2023-02-01T17:03:11;15.80;86.20
36710;DHT22;22694;51.040;3.684;2023-02-01T17:05:45;15.70;86.20
36710;DHT22;22694;51.040;3.684;2023-02-01T17:08:15;15.70;86.80
36710;DHT22;22694;51.040;3.684;2023-02-01T17:10:45;15.70;86.10
36710;DHT22;22694;51.040;3.684;2023-02-01T17:13:15;15.70;86.00
36710;DHT22;22694;51.040;3.684;2023-02-01T17:15:48;15.90;88.50
36710;DHT22;22694;51.040;3.684;2023-02-01T17:18:15;15.80;85.00
36710;DHT22;22694;51.040;3.684;2023-02-01T17:20:42;15.60;81.70
36710;DHT22;22694;51.040;3.684;2023-02-01T17:23:09;15.40;81.70
36710;DHT22;22694;51.040;3.684;2023-02-01T17:25:34;15.10;81.40
36710;DHT22;22694;51.040;3.684;2023-02-01T17:28:00;15.00;81.90
36710;DHT22;22694;51.040;3.684;2023-02-01T17:30:26;14.90;82.20
36710;DHT22;22694;51.040;3.684;2023-02-01T17:32:52;14.70;82.50
36710;DHT22;22694;51.040;3.684;2023-02-01T17:35:20;14.60;83.00
36710;DHT22;22694;51.040;3.684;2023-02-01T17:37:47;14.50;83.10
36710;DHT22;22694;51.040;3.684;2023-02-01T17:40:13;14.50;83.30
36710;DHT22;22694;51.040;3.684;2023-02-01T17:42:39;14.40;83.50
36710;DHT22;22694;51.040;3.684;2023-02-01T17:47:41;14.30;83.70
36710;DHT22;22694;51.040;3.684;2023-02-01T17:50:07;14.30;86.80
36710;DHT22;22694;51.040;3.684;2023-02-01T17:52:33;14.70;91.40
36710;DHT22;22694;51.040;3.684;2023-02-01T17:55:00;14.90;90.00
36710;DHT22;22694;51.040;3.684;2023-02-01T17:57:28;14.80;86.70
36710;DHT22;22694;51.040;3.684;2023-02-01T17:59:53;14.70;84.20
36710;DHT22;22694;51.040;3.684;2023-02-01T18:02:23;14.60;83.10
36710;DHT22;22694;51.040;3.684;2023-02-01T18:04:50;14.50;83.00
36710;DHT22;22694;51.040;3.684;2023-02-01T18:07:16;14.40;83.20
36710;DHT22;22694;51.040;3.684;2023-02-01T18:09:42;14.30;83.50
36710;DHT22;22694;51.040;3.684;2023-02-01T18:12:18;14.20;83.60
36710;DHT22;22694;51.040;3.684;2023-02-01T18:14:44;14.20;83.80
36710;DHT22;22694;51.040;3.684;2023-02-01T18:17:10;14.10;83.90
36710;DHT22;22694;51.040;3.684;2023-02-01T18:19:37;14.00;84.00
36710;DHT22;22694;51.040;3.684;2023-02-01T18:22:02;14.00;84.20
36710;DHT22;22694;51.040;3.684;2023-02-01T18:24:30;14.00;84.20
36710;DHT22;22694;51.040;3.684;2023-02-01T18:26:58;13.90;84.30
36710;DHT22;22694;51.040;3.684;2023-02-01T18:29:24;13.90;84.30
36710;DHT22;22694;51.040;3.684;2023-02-01T18:31:50;13.90;84.30
36710;DHT22;22694;51.040;3.684;2023-02-01T18:34:16;13.80;84.40